TAM3959 SBGL-SBCT
Flight info
| Callsign | TAM3959 |
|---|---|
| Flight time | 1h 20m |
| Altitude | 34000 |
| Route | NAXOP UZ45 RAXIT |
| Aircraft | A20N/M-SDE3FGHIRWY/LB1 |
Departure
| Time | 2026-05-05 14:53 |
|---|---|
| Airport | Rio Galeão – Tom Jobim International Airport (SBGL) |
Arrival
| Time | 2026-05-05 16:13 |
|---|---|
| Airport | Curitiba-Afonso Pena International Airport (SBCT) |
| Time | Latitude | Longitude | Altitude | Speed | Heading |
|---|---|---|---|---|---|
| 2026-05-05 14:25 | -22.81458 | -43.24846 | 42 ft | 0 kts | 72° |
| 2026-05-05 14:43 | -22.81460 | -43.24851 | 42 ft | 2 kts | 75° |
| 2026-05-05 14:43 | -22.81464 | -43.24867 | 41 ft | 2 kts | 71° |
| 2026-05-05 14:44 | -22.81468 | -43.24882 | 41 ft | 2 kts | 72° |
| 2026-05-05 14:44 | -22.81473 | -43.24897 | 41 ft | 1 kts | 71° |
| 2026-05-05 14:44 | -22.81473 | -43.24909 | 40 ft | 1 kts | 128° |
| 2026-05-05 14:44 | -22.81462 | -43.24915 | 41 ft | 2 kts | 174° |
| 2026-05-05 14:45 | -22.81447 | -43.24919 | 41 ft | 2 kts | 166° |
| 2026-05-05 14:45 | -22.81433 | -43.24921 | 41 ft | 1 kts | 175° |
| 2026-05-05 14:45 | -22.81420 | -43.24922 | 41 ft | 2 kts | 174° |
| 2026-05-05 14:45 | -22.81410 | -43.24924 | 41 ft | 1 kts | 174° |
| 2026-05-05 14:46 | -22.81407 | -43.24924 | 41 ft | 0 kts | 175° |
| 2026-05-05 14:47 | -22.81412 | -43.24923 | 41 ft | 3 kts | 176° |
| 2026-05-05 14:47 | -22.81469 | -43.24941 | 40 ft | 15 kts | 232° |
| 2026-05-05 14:47 | -22.81439 | -43.25043 | 38 ft | 14 kts | 299° |
| 2026-05-05 14:48 | -22.81386 | -43.25137 | 38 ft | 14 kts | 321° |
| 2026-05-05 14:48 | -22.81323 | -43.25214 | 36 ft | 13 kts | 307° |
| 2026-05-05 14:48 | -22.81265 | -43.25299 | 34 ft | 14 kts | 308° |
| 2026-05-05 14:48 | -22.81189 | -43.25367 | 33 ft | 13 kts | 330° |
| 2026-05-05 14:49 | -22.81099 | -43.25395 | 32 ft | 13 kts | 351° |
| 2026-05-05 14:49 | -22.81006 | -43.25398 | 30 ft | 13 kts | 353° |
| 2026-05-05 14:49 | -22.80942 | -43.25464 | 29 ft | 13 kts | 297° |
| 2026-05-05 14:49 | -22.80902 | -43.25553 | 28 ft | 13 kts | 295° |
| 2026-05-05 14:50 | -22.80831 | -43.25584 | 28 ft | 13 kts | 21° |
| 2026-05-05 14:50 | -22.80742 | -43.25526 | 25 ft | 15 kts | 32° |
| 2026-05-05 14:50 | -22.80653 | -43.25462 | 25 ft | 15 kts | 34° |
| 2026-05-05 14:50 | -22.80567 | -43.25500 | 25 ft | 14 kts | 311° |
| 2026-05-05 14:51 | -22.80489 | -43.25570 | 25 ft | 14 kts | 328° |
| 2026-05-05 14:51 | -22.80400 | -43.25620 | 25 ft | 14 kts | 6° |
| 2026-05-05 14:51 | -22.80315 | -43.25566 | 25 ft | 14 kts | 36° |
| 2026-05-05 14:51 | -22.80242 | -43.25509 | 25 ft | 5 kts | 17° |
| 2026-05-05 14:52 | -22.80225 | -43.25512 | 25 ft | 3 kts | 352° |
| 2026-05-05 14:52 | -22.80195 | -43.25512 | 25 ft | 3 kts | 42° |
| 2026-05-05 14:52 | -22.80148 | -43.25351 | 25 ft | 58 kts | 74° |
| 2026-05-05 14:52 | -22.79967 | -43.24657 | 25 ft | 129 kts | 73° |
| 2026-05-05 14:53 | -22.79676 | -43.23548 | 232 ft | 166 kts | 73° |
| 2026-05-05 14:53 | -22.79373 | -43.22318 | 834 ft | 172 kts | 75° |
| 2026-05-05 14:53 | -22.79129 | -43.21164 | 1545 ft | 173 kts | 76° |
| 2026-05-05 14:53 | -22.79006 | -43.20570 | 1885 ft | 174 kts | 76° |
| 2026-05-05 14:54 | -22.78946 | -43.20283 | 2018 ft | 176 kts | 76° |
| 2026-05-05 14:54 | -22.78892 | -43.20027 | 2119 ft | 179 kts | 76° |
| 2026-05-05 14:54 | -22.78837 | -43.19766 | 2214 ft | 182 kts | 76° |
| 2026-05-05 14:54 | -22.78805 | -43.19618 | 2266 ft | 184 kts | 76° |
| 2026-05-05 14:55 | -22.78637 | -43.18831 | 2499 ft | 195 kts | 76° |
| 2026-05-05 14:55 | -22.78311 | -43.17323 | 2926 ft | 216 kts | 76° |
| 2026-05-05 14:55 | -22.77949 | -43.15646 | 3427 ft | 236 kts | 76° |
| 2026-05-05 14:55 | -22.77568 | -43.13889 | 4124 ft | 247 kts | 76° |
| 2026-05-05 14:56 | -22.77420 | -43.11991 | 4791 ft | 262 kts | 101° |
| 2026-05-05 14:56 | -22.77860 | -43.10752 | 5152 ft | 275 kts | 124° |
| 2026-05-05 14:56 | -22.79106 | -43.09537 | 5833 ft | 282 kts | 155° |
| 2026-05-05 14:57 | -22.81002 | -43.09159 | 6743 ft | 284 kts | 188° |
| 2026-05-05 14:57 | -22.82785 | -43.09934 | 7616 ft | 286 kts | 220° |
| 2026-05-05 14:57 | -22.84093 | -43.11533 | 8527 ft | 287 kts | 234° |
| 2026-05-05 14:57 | -22.85265 | -43.13274 | 9389 ft | 290 kts | 235° |
| 2026-05-05 14:58 | -22.86475 | -43.15033 | 10249 ft | 294 kts | 234° |
| 2026-05-05 14:58 | -22.87734 | -43.16790 | 10958 ft | 302 kts | 233° |
| 2026-05-05 14:58 | -22.88582 | -43.17944 | 11279 ft | 312 kts | 232° |
| 2026-05-05 14:58 | -22.89449 | -43.19104 | 11710 ft | 317 kts | 232° |
| 2026-05-05 14:59 | -22.90242 | -43.20153 | 12175 ft | 318 kts | 231° |
| 2026-05-05 14:59 | -22.90714 | -43.20773 | 12461 ft | 319 kts | 231° |
| 2026-05-05 14:59 | -22.91059 | -43.21225 | 12667 ft | 319 kts | 231° |
| 2026-05-05 14:59 | -22.91456 | -43.21744 | 12899 ft | 320 kts | 231° |
| 2026-05-05 15:00 | -22.91594 | -43.21925 | 12979 ft | 320 kts | 231° |
| 2026-05-05 15:00 | -22.92539 | -43.23155 | 13505 ft | 322 kts | 231° |
| 2026-05-05 15:00 | -22.93994 | -43.25044 | 14278 ft | 326 kts | 231° |
| 2026-05-05 15:00 | -22.95324 | -43.26767 | 14964 ft | 329 kts | 231° |
| 2026-05-05 15:01 | -22.96784 | -43.28656 | 15696 ft | 332 kts | 231° |
| 2026-05-05 15:01 | -22.98270 | -43.30577 | 16420 ft | 336 kts | 231° |
| 2026-05-05 15:01 | -22.99776 | -43.32524 | 17126 ft | 340 kts | 231° |
| 2026-05-05 15:01 | -23.01296 | -43.34490 | 17858 ft | 342 kts | 232° |
| 2026-05-05 15:02 | -23.02824 | -43.36467 | 18526 ft | 345 kts | 232° |
| 2026-05-05 15:02 | -23.04363 | -43.38458 | 19174 ft | 348 kts | 232° |
| 2026-05-05 15:02 | -23.05921 | -43.40475 | 19814 ft | 351 kts | 232° |
| 2026-05-05 15:02 | -23.07487 | -43.42503 | 20442 ft | 354 kts | 232° |
| 2026-05-05 15:03 | -23.09066 | -43.44548 | 21061 ft | 357 kts | 232° |
| 2026-05-05 15:03 | -23.10652 | -43.46603 | 21672 ft | 360 kts | 232° |
| 2026-05-05 15:03 | -23.12269 | -43.48700 | 22284 ft | 362 kts | 232° |
| 2026-05-05 15:03 | -23.13873 | -43.50780 | 22876 ft | 365 kts | 232° |
| 2026-05-05 15:04 | -23.15513 | -43.52908 | 23465 ft | 368 kts | 232° |
| 2026-05-05 15:04 | -23.17146 | -43.55028 | 24034 ft | 370 kts | 232° |
| 2026-05-05 15:04 | -23.18800 | -43.57177 | 24590 ft | 373 kts | 233° |
| 2026-05-05 15:04 | -23.20475 | -43.59353 | 25134 ft | 375 kts | 233° |
| 2026-05-05 15:05 | -23.23824 | -43.63707 | 26167 ft | 380 kts | 233° |
| 2026-05-05 15:05 | -23.25530 | -43.65926 | 26668 ft | 383 kts | 233° |
| 2026-05-05 15:05 | -23.27226 | -43.68133 | 27150 ft | 385 kts | 233° |
| 2026-05-05 15:06 | -23.28959 | -43.70385 | 27622 ft | 387 kts | 233° |
| 2026-05-05 15:06 | -23.30665 | -43.72602 | 28195 ft | 386 kts | 233° |
| 2026-05-05 15:06 | -23.32402 | -43.74866 | 28539 ft | 391 kts | 233° |
| 2026-05-05 15:06 | -23.34137 | -43.77129 | 28894 ft | 394 kts | 233° |
| 2026-05-05 15:07 | -23.35887 | -43.79412 | 29281 ft | 397 kts | 233° |
| 2026-05-05 15:07 | -23.37661 | -43.81727 | 29663 ft | 398 kts | 233° |
| 2026-05-05 15:07 | -23.39447 | -43.84059 | 30026 ft | 400 kts | 233° |
| 2026-05-05 15:07 | -23.41209 | -43.86365 | 30372 ft | 402 kts | 234° |
| 2026-05-05 15:08 | -23.42886 | -43.88781 | 30794 ft | 399 kts | 238° |
| 2026-05-05 15:08 | -23.44382 | -43.91316 | 31253 ft | 396 kts | 243° |
| 2026-05-05 15:08 | -23.45668 | -43.93915 | 31683 ft | 392 kts | 247° |
| 2026-05-05 15:08 | -23.46780 | -43.96645 | 32096 ft | 390 kts | 251° |
| 2026-05-05 15:09 | -23.47672 | -43.99376 | 32482 ft | 387 kts | 255° |
| 2026-05-05 15:09 | -23.48393 | -44.02201 | 32821 ft | 387 kts | 258° |
| 2026-05-05 15:09 | -23.49038 | -44.05018 | 33278 ft | 382 kts | 257° |
| 2026-05-05 15:09 | -23.49687 | -44.07816 | 33729 ft | 379 kts | 258° |
| 2026-05-05 15:10 | -23.50341 | -44.10627 | 33827 ft | 385 kts | 258° |
| 2026-05-05 15:10 | -23.50998 | -44.13472 | 33955 ft | 390 kts | 258° |
| 2026-05-05 15:10 | -23.51655 | -44.16330 | 34087 ft | 395 kts | 258° |
| 2026-05-05 15:11 | -23.52988 | -44.22152 | 34185 ft | 397 kts | 258° |
| 2026-05-05 15:11 | -23.54324 | -44.27995 | 34193 ft | 397 kts | 258° |
| 2026-05-05 15:12 | -23.55661 | -44.33804 | 34194 ft | 397 kts | 258° |
| 2026-05-05 15:12 | -23.57020 | -44.39641 | 34195 ft | 397 kts | 258° |
| 2026-05-05 15:13 | -23.58357 | -44.45455 | 34199 ft | 397 kts | 258° |
| 2026-05-05 15:13 | -23.59692 | -44.51299 | 34214 ft | 397 kts | 258° |
| 2026-05-05 15:14 | -23.61012 | -44.57104 | 34236 ft | 397 kts | 258° |
| 2026-05-05 15:14 | -23.62340 | -44.62957 | 34261 ft | 397 kts | 258° |
| 2026-05-05 15:15 | -23.63655 | -44.68765 | 34284 ft | 397 kts | 258° |
| 2026-05-05 15:15 | -23.64973 | -44.74602 | 34293 ft | 396 kts | 258° |
| 2026-05-05 15:16 | -23.66287 | -44.80431 | 34291 ft | 396 kts | 258° |
| 2026-05-05 15:16 | -23.67600 | -44.86265 | 34285 ft | 396 kts | 258° |
| 2026-05-05 15:17 | -23.68903 | -44.92061 | 34281 ft | 396 kts | 258° |
| 2026-05-05 15:17 | -23.70209 | -44.97885 | 34280 ft | 395 kts | 258° |
| 2026-05-05 15:18 | -23.71512 | -45.03706 | 34280 ft | 395 kts | 259° |
| 2026-05-05 15:18 | -23.72806 | -45.09505 | 34280 ft | 394 kts | 259° |
| 2026-05-05 15:19 | -23.74098 | -45.15331 | 34279 ft | 393 kts | 259° |
| 2026-05-05 15:19 | -23.75381 | -45.21118 | 34279 ft | 393 kts | 259° |
| 2026-05-05 15:20 | -23.76665 | -45.26905 | 34279 ft | 393 kts | 259° |
| 2026-05-05 15:20 | -23.77943 | -45.32687 | 34279 ft | 393 kts | 259° |
| 2026-05-05 15:21 | -23.79223 | -45.38498 | 34279 ft | 393 kts | 259° |
| 2026-05-05 15:21 | -23.80497 | -45.44292 | 34279 ft | 393 kts | 259° |
| 2026-05-05 15:22 | -23.81774 | -45.50113 | 34279 ft | 393 kts | 259° |
| 2026-05-05 15:22 | -23.83037 | -45.55889 | 34279 ft | 393 kts | 259° |
| 2026-05-05 15:23 | -23.84302 | -45.61680 | 34279 ft | 392 kts | 259° |
| 2026-05-05 15:23 | -23.85570 | -45.67477 | 34279 ft | 392 kts | 259° |
| 2026-05-05 15:24 | -23.86836 | -45.73250 | 34279 ft | 391 kts | 259° |
| 2026-05-05 15:24 | -23.88097 | -45.79022 | 34279 ft | 391 kts | 259° |
| 2026-05-05 15:25 | -23.89352 | -45.84781 | 34279 ft | 391 kts | 259° |
| 2026-05-05 15:25 | -23.90606 | -45.90551 | 34311 ft | 391 kts | 259° |
| 2026-05-05 15:26 | -23.91847 | -45.96322 | 34371 ft | 391 kts | 259° |
| 2026-05-05 15:26 | -23.93114 | -46.02116 | 34310 ft | 391 kts | 259° |
| 2026-05-05 15:27 | -23.94366 | -46.07907 | 34299 ft | 391 kts | 259° |
| 2026-05-05 15:27 | -23.95605 | -46.13670 | 34301 ft | 391 kts | 260° |
| 2026-05-05 15:28 | -23.96848 | -46.19460 | 34303 ft | 391 kts | 260° |
| 2026-05-05 15:28 | -23.98119 | -46.25232 | 34303 ft | 391 kts | 258° |
| 2026-05-05 15:29 | -23.99780 | -46.30896 | 34304 ft | 392 kts | 254° |
| 2026-05-05 15:29 | -24.01581 | -46.36541 | 34304 ft | 392 kts | 254° |
| 2026-05-05 15:30 | -24.03368 | -46.42146 | 34304 ft | 392 kts | 254° |
| 2026-05-05 15:30 | -24.05151 | -46.47748 | 34304 ft | 392 kts | 254° |
| 2026-05-05 15:31 | -24.06934 | -46.53360 | 34304 ft | 392 kts | 254° |
| 2026-05-05 15:31 | -24.08723 | -46.58991 | 34304 ft | 391 kts | 254° |
| 2026-05-05 15:32 | -24.10509 | -46.64628 | 34304 ft | 391 kts | 254° |
| 2026-05-05 15:32 | -24.12277 | -46.70212 | 34304 ft | 391 kts | 254° |
| 2026-05-05 15:33 | -24.14053 | -46.75833 | 34304 ft | 391 kts | 254° |
| 2026-05-05 15:33 | -24.15835 | -46.81479 | 34304 ft | 391 kts | 254° |
| 2026-05-05 15:34 | -24.17601 | -46.87080 | 34304 ft | 391 kts | 254° |
| 2026-05-05 15:34 | -24.19370 | -46.92701 | 34304 ft | 390 kts | 254° |
| 2026-05-05 15:35 | -24.21131 | -46.98305 | 34304 ft | 389 kts | 254° |
| 2026-05-05 15:35 | -24.22878 | -47.03876 | 34304 ft | 389 kts | 254° |
| 2026-05-05 15:36 | -24.24639 | -47.09499 | 34304 ft | 390 kts | 254° |
| 2026-05-05 15:36 | -24.26384 | -47.15105 | 34303 ft | 391 kts | 255° |
| 2026-05-05 15:37 | -24.28040 | -47.20766 | 34304 ft | 392 kts | 256° |
| 2026-05-05 15:37 | -24.29681 | -47.26428 | 34304 ft | 391 kts | 256° |
| 2026-05-05 15:38 | -24.31328 | -47.32100 | 34304 ft | 391 kts | 256° |
| 2026-05-05 15:38 | -24.32986 | -47.37807 | 34304 ft | 391 kts | 256° |
| 2026-05-05 15:39 | -24.34623 | -47.43447 | 34304 ft | 391 kts | 256° |
| 2026-05-05 15:39 | -24.36276 | -47.49146 | 34304 ft | 391 kts | 256° |
| 2026-05-05 15:40 | -24.37922 | -47.54832 | 34304 ft | 391 kts | 256° |
| 2026-05-05 15:40 | -24.39558 | -47.60489 | 34303 ft | 391 kts | 255° |
| 2026-05-05 15:41 | -24.41677 | -47.65993 | 34304 ft | 392 kts | 246° |
| 2026-05-05 15:41 | -24.44594 | -47.71021 | 34305 ft | 397 kts | 237° |
| 2026-05-05 15:42 | -24.48314 | -47.75531 | 34305 ft | 402 kts | 229° |
| 2026-05-05 15:42 | -24.52410 | -47.79723 | 34304 ft | 403 kts | 228° |
| 2026-05-05 15:43 | -24.56501 | -47.83878 | 34303 ft | 403 kts | 228° |
| 2026-05-05 15:43 | -24.60607 | -47.88047 | 34344 ft | 403 kts | 228° |
| 2026-05-05 15:44 | -24.64701 | -47.92209 | 34311 ft | 403 kts | 228° |
| 2026-05-05 15:44 | -24.68799 | -47.96398 | 34305 ft | 403 kts | 228° |
| 2026-05-05 15:45 | -24.72900 | -48.00596 | 34304 ft | 403 kts | 228° |
| 2026-05-05 15:45 | -24.76985 | -48.04783 | 34304 ft | 403 kts | 228° |
| 2026-05-05 15:46 | -24.81065 | -48.08965 | 34341 ft | 403 kts | 228° |
| 2026-05-05 15:46 | -24.85146 | -48.13194 | 34327 ft | 402 kts | 229° |
| 2026-05-05 15:47 | -24.89209 | -48.17370 | 34308 ft | 402 kts | 228° |
| 2026-05-05 15:47 | -24.93304 | -48.21581 | 34305 ft | 402 kts | 228° |
| 2026-05-05 15:48 | -24.97265 | -48.25856 | 34299 ft | 397 kts | 236° |
| 2026-05-05 15:48 | -25.00087 | -48.30986 | 34304 ft | 388 kts | 248° |
| 2026-05-05 15:49 | -25.02444 | -48.36280 | 34304 ft | 386 kts | 249° |
| 2026-05-05 15:49 | -25.04805 | -48.41578 | 34304 ft | 385 kts | 249° |
| 2026-05-05 15:50 | -25.07179 | -48.46883 | 34304 ft | 384 kts | 249° |
| 2026-05-05 15:50 | -25.09529 | -48.52130 | 34304 ft | 382 kts | 249° |
| 2026-05-05 15:51 | -25.11867 | -48.57360 | 34304 ft | 381 kts | 250° |
| 2026-05-05 15:51 | -25.14195 | -48.62579 | 34304 ft | 380 kts | 250° |
| 2026-05-05 15:52 | -25.16531 | -48.67829 | 34304 ft | 380 kts | 250° |
| 2026-05-05 15:52 | -25.18832 | -48.73037 | 34304 ft | 380 kts | 250° |
| 2026-05-05 15:53 | -25.21071 | -48.78331 | 34294 ft | 376 kts | 257° |
| 2026-05-05 15:53 | -25.21613 | -48.81118 | 34290 ft | 370 kts | 268° |
| 2026-05-05 15:53 | -25.21819 | -48.83939 | 33994 ft | 364 kts | 268° |
| 2026-05-05 15:53 | -25.22239 | -48.86679 | 32924 ft | 374 kts | 260° |
| 2026-05-05 15:54 | -25.23069 | -48.89429 | 31274 ft | 391 kts | 252° |
| 2026-05-05 15:54 | -25.24268 | -48.92117 | 29728 ft | 400 kts | 247° |
| 2026-05-05 15:54 | -25.25590 | -48.94765 | 28541 ft | 397 kts | 246° |
| 2026-05-05 15:54 | -25.26912 | -48.97382 | 27447 ft | 391 kts | 246° |
| 2026-05-05 15:55 | -25.28211 | -48.99960 | 26351 ft | 385 kts | 246° |
| 2026-05-05 15:55 | -25.29502 | -49.02534 | 25241 ft | 380 kts | 246° |
| 2026-05-05 15:55 | -25.30812 | -49.05009 | 24136 ft | 380 kts | 239° |
| 2026-05-05 15:55 | -25.32764 | -49.07013 | 23005 ft | 390 kts | 217° |
| 2026-05-05 15:56 | -25.35232 | -49.08184 | 21908 ft | 398 kts | 199° |
| 2026-05-05 15:56 | -25.38001 | -49.08480 | 20789 ft | 405 kts | 180° |
| 2026-05-05 15:56 | -25.40715 | -49.07818 | 19684 ft | 409 kts | 160° |
| 2026-05-05 15:56 | -25.43203 | -49.06329 | 18586 ft | 408 kts | 150° |
| 2026-05-05 15:57 | -25.45535 | -49.04657 | 17497 ft | 403 kts | 148° |
| 2026-05-05 15:57 | -25.47859 | -49.02966 | 16408 ft | 398 kts | 148° |
| 2026-05-05 15:57 | -25.50142 | -49.01335 | 15355 ft | 391 kts | 149° |
| 2026-05-05 15:57 | -25.52373 | -48.99759 | 14760 ft | 372 kts | 149° |
| 2026-05-05 15:58 | -25.54507 | -48.98263 | 14275 ft | 353 kts | 149° |
| 2026-05-05 15:58 | -25.56526 | -48.96859 | 13814 ft | 337 kts | 150° |
| 2026-05-05 15:58 | -25.58468 | -48.95505 | 13360 ft | 323 kts | 148° |
| 2026-05-05 15:58 | -25.60004 | -48.93818 | 12991 ft | 311 kts | 120° |
| 2026-05-05 15:59 | -25.60582 | -48.91566 | 12702 ft | 303 kts | 86° |
| 2026-05-05 15:59 | -25.60140 | -48.89344 | 12414 ft | 293 kts | 65° |
| 2026-05-05 15:59 | -25.59325 | -48.87262 | 11868 ft | 297 kts | 59° |
| 2026-05-05 15:59 | -25.58051 | -48.85500 | 11342 ft | 293 kts | 32° |
| 2026-05-05 16:00 | -25.56315 | -48.84381 | 10960 ft | 288 kts | 23° |
| 2026-05-05 16:00 | -25.54501 | -48.83446 | 10570 ft | 284 kts | 12° |
| 2026-05-05 16:00 | -25.52611 | -48.83403 | 10243 ft | 269 kts | 340° |
| 2026-05-05 16:00 | -25.51016 | -48.84332 | 9957 ft | 259 kts | 316° |
| 2026-05-05 16:01 | -25.49949 | -48.85893 | 9628 ft | 249 kts | 292° |
| 2026-05-05 16:01 | -25.49575 | -48.87717 | 9107 ft | 244 kts | 270° |
| 2026-05-05 16:01 | -25.49922 | -48.89569 | 8313 ft | 254 kts | 246° |
| 2026-05-05 16:01 | -25.50987 | -48.91137 | 7623 ft | 259 kts | 221° |
| 2026-05-05 16:02 | -25.52488 | -48.92212 | 7173 ft | 256 kts | 212° |
| 2026-05-05 16:02 | -25.54023 | -48.93180 | 6991 ft | 248 kts | 212° |
| 2026-05-05 16:02 | -25.55450 | -48.94101 | 7029 ft | 231 kts | 213° |
| 2026-05-05 16:02 | -25.56857 | -48.94954 | 7049 ft | 233 kts | 206° |
| 2026-05-05 16:03 | -25.58356 | -48.95614 | 7042 ft | 230 kts | 202° |
| 2026-05-05 16:03 | -25.59856 | -48.96203 | 7008 ft | 226 kts | 200° |
| 2026-05-05 16:03 | -25.61322 | -48.96696 | 6944 ft | 221 kts | 199° |
| 2026-05-05 16:03 | -25.62802 | -48.97166 | 6891 ft | 222 kts | 199° |
| 2026-05-05 16:04 | -25.64318 | -48.97491 | 6832 ft | 223 kts | 185° |
| 2026-05-05 16:04 | -25.65873 | -48.97511 | 6782 ft | 224 kts | 181° |
| 2026-05-05 16:04 | -25.67419 | -48.97456 | 6735 ft | 223 kts | 180° |
| 2026-05-05 16:04 | -25.68953 | -48.97381 | 6688 ft | 220 kts | 180° |
| 2026-05-05 16:05 | -25.70487 | -48.97298 | 6640 ft | 219 kts | 180° |
| 2026-05-05 16:05 | -25.71980 | -48.97210 | 6569 ft | 209 kts | 179° |
| 2026-05-05 16:05 | -25.73428 | -48.97126 | 6520 ft | 209 kts | 179° |
| 2026-05-05 16:05 | -25.74890 | -48.97050 | 6466 ft | 211 kts | 180° |
| 2026-05-05 16:06 | -25.76343 | -48.97010 | 6420 ft | 206 kts | 190° |
| 2026-05-05 16:06 | -25.77630 | -48.97588 | 6360 ft | 199 kts | 227° |
| 2026-05-05 16:06 | -25.78318 | -48.98886 | 6357 ft | 194 kts | 262° |
| 2026-05-05 16:06 | -25.78204 | -49.00337 | 6315 ft | 193 kts | 299° |
| 2026-05-05 16:07 | -25.77327 | -49.01430 | 6301 ft | 192 kts | 333° |
| 2026-05-05 16:07 | -25.76036 | -49.01823 | 6303 ft | 195 kts | 349° |
| 2026-05-05 16:07 | -25.74679 | -49.02034 | 6223 ft | 198 kts | 350° |
| 2026-05-05 16:07 | -25.73338 | -49.02246 | 6065 ft | 195 kts | 349° |
| 2026-05-05 16:08 | -25.71983 | -49.02465 | 5944 ft | 194 kts | 349° |
| 2026-05-05 16:08 | -25.70650 | -49.02676 | 5842 ft | 195 kts | 349° |
| 2026-05-05 16:08 | -25.69308 | -49.02890 | 5741 ft | 197 kts | 349° |
| 2026-05-05 16:08 | -25.67957 | -49.03113 | 5633 ft | 194 kts | 349° |
| 2026-05-05 16:09 | -25.66647 | -49.03328 | 5522 ft | 184 kts | 349° |
| 2026-05-05 16:09 | -25.65468 | -49.03761 | 5484 ft | 180 kts | 326° |
| 2026-05-05 16:09 | -25.64453 | -49.04588 | 5495 ft | 180 kts | 316° |
| 2026-05-05 16:09 | -25.63548 | -49.05551 | 5505 ft | 180 kts | 314° |
| 2026-05-05 16:10 | -25.62672 | -49.06554 | 5351 ft | 180 kts | 314° |
| 2026-05-05 16:10 | -25.61804 | -49.07545 | 5200 ft | 180 kts | 313° |
| 2026-05-05 16:10 | -25.60934 | -49.08529 | 5039 ft | 179 kts | 314° |
| 2026-05-05 16:10 | -25.60077 | -49.09488 | 4840 ft | 172 kts | 314° |
| 2026-05-05 16:11 | -25.59247 | -49.10417 | 4582 ft | 168 kts | 314° |
| 2026-05-05 16:11 | -25.56960 | -49.12980 | 3930 ft | 151 kts | 314° |
| 2026-05-05 16:12 | -25.56232 | -49.13804 | 3757 ft | 150 kts | 317° |
| 2026-05-05 16:12 | -25.54746 | -49.15450 | 3338 ft | 150 kts | 316° |
| 2026-05-05 16:13 | -25.52709 | -49.17728 | 2995 ft | 78 kts | 314° |
| 2026-05-05 16:13 | -25.52525 | -49.17939 | 2995 ft | 10 kts | 292° |
| 2026-05-05 16:13 | -25.52563 | -49.17996 | 2995 ft | 10 kts | 186° |
| 2026-05-05 16:14 | -25.52720 | -49.17993 | 2995 ft | 11 kts | 179° |
| 2026-05-05 16:14 | -25.52885 | -49.17966 | 2995 ft | 12 kts | 139° |
| 2026-05-05 16:15 | -25.52986 | -49.17815 | 2995 ft | 12 kts | 95° |
| 2026-05-05 16:15 | -25.53009 | -49.17619 | 2995 ft | 13 kts | 129° |
| 2026-05-05 16:16 | -25.53136 | -49.17475 | 2995 ft | 13 kts | 137° |
| 2026-05-05 16:16 | -25.53268 | -49.17332 | 2995 ft | 13 kts | 135° |
| 2026-05-05 16:17 | -25.53391 | -49.17194 | 2995 ft | 11 kts | 135° |
| 2026-05-05 16:17 | -25.53448 | -49.17131 | 2995 ft | 10 kts | 138° |
| 2026-05-05 16:18 | -25.53562 | -49.17196 | 2995 ft | 6 kts | 226° |
| 2026-05-05 16:18 | -25.53575 | -49.17210 | 2995 ft | 0 kts | 224° |
| 2026-05-05 16:18 | -25.53576 | -49.17211 | 2995 ft | 0 kts | 224° |